首页
METAR-TAF:

METAR-TAF

机场 :

威尔明顿, 特拉华州, 美国

纬度: 39-40-22N, 经度: 075-36-03W, 海拔: 24米

当前天气观测

该预报发布于1小时和4分钟前的04:51 UTC
风速8节,风向西转西南
温度 0°C
湿度 59%
气压 1017 hPa
能見度: 16.1公里
天空无云

METAR: KILG 190451Z AUTO 25008KT 10SM CLR 00/M07 A3004 RMK AO2 SLP173 T00001067 400720000 $

时间: 00:55 (05:55 UTC)

预报

该预报发布于34分钟前的05:21 UTC
预报有效从19日的 06点(UTC)到 20日的 06点(UTC)
风速5节,风向西转西南
能見度: 10公里
散云层高于15000英尺
从 19日的 1400点(UTC)
风速10节,风向西
能見度: 10公里
散云层高于10000英尺
从 19日的 1600点(UTC)
风速12节,风向西,有时为20节阵风
能見度: 10公里
散云层高于5000英尺
从 19日的 2200点(UTC)
风速8节,风向西
能見度: 10公里
少量云层高于8000英尺

TAF: KILG 190521Z 1906/2006 25005KT P6SM SCT150 FM191400 26010KT P6SM SCT100 FM191600 27012G20KT P6SM SCT050 FM192200 27008KT P6SM FEW080

超过4000个机场的气象观测和天气预报(METAR&TAF报告)。

可查询的气象台以黄色和红色小点在地图上表示。

将鼠标移到小点上方,可查看气象台名称。

然后点击查看天气观测和预报。

如需切换地图:点击带黑十字的绿色按钮放大地图;点击带横线的绿色按钮缩小地图;或者点击绿色箭头查看邻近地区的地图。


METAR-TAF: